createdAt,value
2018-11-26T00:00:29.124Z,20.70
2018-11-26T00:03:16.566Z,20.60
2018-11-26T00:08:51.363Z,20.60
2018-11-26T00:11:44.381Z,20.70
2018-11-26T00:14:31.816Z,20.70
2018-11-26T00:17:13.350Z,20.70
2018-11-26T00:19:56.044Z,20.50
2018-11-26T00:22:46.814Z,20.50
2018-11-26T00:37:21.750Z,20.20
2018-11-26T00:43:12.394Z,19.90
2018-11-26T00:45:48.734Z,19.90
2018-11-26T00:48:34.574Z,19.80
2018-11-26T00:51:17.112Z,19.80
2018-11-26T00:53:57.265Z,19.90
2018-11-26T00:56:32.800Z,19.90
2018-11-26T00:59:08.503Z,19.80
2018-11-26T01:01:42.709Z,19.80
2018-11-26T01:04:16.531Z,19.70
2018-11-26T01:06:49.697Z,19.70
2018-11-26T01:09:24.504Z,19.70
2018-11-26T01:11:57.623Z,19.60
2018-11-26T01:17:58.516Z,19.50
2018-11-26T01:20:33.277Z,19.50
2018-11-26T01:23:13.277Z,19.60
2018-11-26T01:25:48.368Z,19.70
2018-11-26T01:28:26.956Z,19.80
2018-11-26T01:34:03.275Z,19.70
2018-11-26T01:36:35.682Z,19.50
2018-11-26T01:39:12.923Z,19.50
2018-11-26T01:41:46.908Z,19.40
2018-11-26T01:44:27.331Z,19.40
2018-11-26T01:47:00.564Z,19.50
2018-11-26T01:49:36.508Z,19.40
2018-11-26T01:55:12.181Z,19.30
2018-11-26T01:57:52.120Z,19.30
2018-11-26T02:00:35.233Z,19.20
2018-11-26T02:03:13.676Z,19.20
2018-11-26T02:08:30.526Z,19.10
2018-11-26T02:11:04.178Z,19.00
2018-11-26T02:13:38.422Z,18.90
2018-11-26T02:16:11.949Z,18.80
2018-11-26T02:18:46.541Z,18.90
2018-11-26T02:21:21.137Z,18.80
2018-11-26T02:23:53.923Z,18.80
2018-11-26T02:26:27.977Z,18.70
2018-11-26T02:29:01.204Z,18.70
2018-11-26T02:31:39.415Z,18.70
2018-11-26T02:37:35.196Z,18.60
2018-11-26T02:40:09.003Z,18.70
2018-11-26T02:42:42.485Z,18.70
2018-11-26T02:45:14.974Z,18.60
2018-11-26T02:47:48.471Z,18.60
2018-11-26T02:50:21.011Z,18.50
2018-11-26T02:52:54.238Z,18.40
2018-11-26T02:55:27.394Z,18.40
2018-11-26T02:58:00.759Z,18.30
2018-11-26T03:00:33.856Z,18.20
2018-11-26T03:03:06.988Z,18.30
2018-11-26T03:05:39.419Z,18.20
2018-11-26T03:08:12.979Z,18.20
2018-11-26T03:10:45.754Z,18.10
2018-11-26T03:13:28.157Z,18.00
2018-11-26T03:16:00.632Z,17.90
2018-11-26T03:18:33.816Z,17.90
2018-11-26T03:21:06.835Z,17.90
2018-11-26T03:23:41.028Z,17.90
2018-11-26T03:26:13.512Z,17.90
2018-11-26T03:32:08.572Z,18.00
2018-11-26T03:34:41.101Z,17.90
2018-11-26T03:37:17.920Z,17.90
2018-11-26T03:39:50.561Z,17.80
2018-11-26T03:42:23.869Z,17.80
2018-11-26T03:44:56.371Z,17.80
2018-11-26T03:47:35.754Z,17.80
2018-11-26T03:50:21.543Z,17.90
2018-11-26T03:53:09.641Z,17.90
2018-11-26T03:55:43.427Z,17.90
2018-11-26T03:58:18.902Z,17.80
2018-11-26T04:01:00.384Z,17.80
2018-11-26T04:03:36.016Z,17.80
2018-11-26T04:06:26.443Z,17.70
2018-11-26T04:12:19.635Z,17.70
2018-11-26T04:14:57.886Z,17.60
2018-11-26T04:17:43.505Z,17.50
2018-11-26T04:20:17.424Z,17.50
2018-11-26T04:22:51.156Z,17.50
2018-11-26T04:25:23.770Z,17.50
2018-11-26T04:27:56.259Z,17.40
2018-11-26T04:34:00.957Z,17.40
2018-11-26T04:36:35.408Z,17.30
2018-11-26T04:39:09.248Z,17.30
2018-11-26T04:41:41.640Z,17.20
2018-11-26T04:44:14.069Z,17.20
2018-11-26T04:46:46.412Z,17.20
2018-11-26T04:49:23.888Z,17.20
2018-11-26T04:51:56.216Z,17.20
2018-11-26T04:54:28.653Z,17.20
2018-11-26T04:57:22.602Z,17.10
2018-11-26T05:00:13.004Z,17.10
2018-11-26T05:02:45.824Z,17.10
2018-11-26T05:05:18.470Z,17.10
2018-11-26T05:07:51.557Z,17.00
2018-11-26T05:10:24.358Z,17.00
2018-11-26T05:12:56.843Z,17.00
2018-11-26T05:15:29.424Z,17.00
2018-11-26T05:18:01.860Z,17.00
2018-11-26T05:20:34.205Z,17.00
2018-11-26T05:23:06.623Z,17.10
2018-11-26T05:25:39.207Z,17.20
2018-11-26T05:28:12.213Z,17.20
2018-11-26T05:30:45.612Z,17.30
2018-11-26T05:33:18.326Z,17.30
2018-11-26T05:35:52.594Z,17.30
2018-11-26T05:38:25.021Z,17.30
2018-11-26T05:40:57.542Z,17.20
2018-11-26T05:43:30.849Z,17.30
2018-11-26T05:46:04.254Z,17.30
2018-11-26T05:52:08.007Z,17.30
2018-11-26T05:54:41.355Z,17.30
2018-11-26T05:57:14.646Z,17.30
2018-11-26T05:59:47.255Z,17.20
2018-11-26T06:02:23.556Z,17.10
2018-11-26T06:04:56.039Z,17.00
2018-11-26T06:07:28.457Z,17.00
2018-11-26T06:10:00.675Z,17.00
2018-11-26T06:12:32.942Z,17.00
2018-11-26T06:15:05.193Z,16.90
2018-11-26T06:17:37.510Z,16.90
2018-11-26T06:20:11.167Z,16.90
2018-11-26T06:22:44.361Z,16.90
2018-11-26T06:25:18.201Z,16.90
2018-11-26T06:27:50.575Z,16.90
2018-11-26T06:30:23.439Z,16.90
2018-11-26T06:32:55.733Z,16.80
2018-11-26T06:35:28.126Z,16.80
2018-11-26T06:38:00.808Z,16.70
2018-11-26T06:40:33.030Z,16.60
2018-11-26T06:43:05.240Z,16.70
2018-11-26T06:45:37.671Z,16.60
2018-11-26T06:48:10.122Z,16.60
2018-11-26T06:50:43.048Z,16.60
2018-11-26T06:53:15.378Z,16.60
2018-11-26T06:55:47.606Z,16.60
2018-11-26T06:58:19.913Z,16.60
2018-11-26T07:00:52.804Z,16.60
2018-11-26T07:03:25.079Z,16.60
2018-11-26T07:05:57.562Z,16.60
2018-11-26T07:08:30.649Z,16.60
2018-11-26T07:11:03.101Z,16.50
2018-11-26T07:13:35.349Z,16.40
2018-11-26T07:16:10.234Z,16.30
2018-11-26T07:18:42.650Z,16.30
2018-11-26T07:21:15.406Z,16.30
2018-11-26T07:23:49.941Z,16.30
2018-11-26T07:26:23.060Z,16.30
2018-11-26T07:28:55.335Z,16.30
2018-11-26T07:31:27.676Z,16.30
2018-11-26T07:37:31.782Z,16.30
2018-11-26T07:40:05.128Z,16.30
2018-11-26T07:42:37.955Z,16.30
2018-11-26T07:45:13.644Z,16.30
2018-11-26T07:47:46.472Z,16.20
2018-11-26T07:50:20.244Z,16.20
2018-11-26T07:52:53.910Z,16.20
2018-11-26T07:55:26.774Z,16.30
2018-11-26T07:58:00.292Z,16.30
2018-11-26T08:00:33.207Z,16.30
2018-11-26T08:03:06.190Z,16.30
2018-11-26T08:05:39.076Z,16.20
2018-11-26T08:08:14.828Z,16.10
2018-11-26T08:11:34.173Z,16.00
2018-11-26T08:14:06.624Z,16.00
2018-11-26T08:16:38.973Z,15.90
2018-11-26T08:19:11.301Z,15.80
2018-11-26T08:21:43.645Z,15.70
2018-11-26T08:24:15.977Z,15.60
2018-11-26T08:26:48.478Z,15.60
2018-11-26T08:29:21.082Z,15.70
2018-11-26T08:31:53.435Z,15.70
2018-11-26T08:34:25.778Z,15.80
2018-11-26T08:37:02.491Z,15.80
2018-11-26T08:39:38.196Z,15.80
2018-11-26T08:42:15.014Z,15.70
2018-11-26T08:44:48.188Z,15.70
2018-11-26T08:50:42.459Z,15.50
2018-11-26T08:53:14.954Z,15.40
2018-11-26T08:55:47.508Z,15.30
2018-11-26T08:58:20.023Z,15.40
2018-11-26T09:00:56.710Z,15.40
2018-11-26T09:03:33.531Z,15.30
2018-11-26T09:06:06.719Z,15.30
2018-11-26T09:08:40.023Z,15.30
2018-11-26T09:14:33.694Z,15.40
2018-11-26T09:17:05.862Z,15.10
2018-11-26T09:19:38.643Z,15.10
2018-11-26T09:22:10.856Z,15.10
2018-11-26T09:24:43.003Z,15.10
2018-11-26T09:27:15.153Z,15.10
2018-11-26T09:29:47.391Z,15.20
2018-11-26T09:32:19.512Z,15.30
2018-11-26T09:34:51.711Z,15.30
2018-11-26T09:40:55.220Z,15.30
2018-11-26T09:43:27.859Z,15.30
2018-11-26T09:46:00.187Z,15.30
2018-11-26T09:48:32.559Z,15.40
2018-11-26T09:51:05.496Z,15.40
2018-11-26T09:53:37.741Z,15.40
2018-11-26T09:56:10.960Z,15.40
2018-11-26T09:58:44.126Z,15.40
2018-11-26T10:04:39.001Z,15.30
2018-11-26T10:07:11.321Z,15.30
2018-11-26T10:09:43.694Z,15.40
2018-11-26T10:12:16.097Z,15.40
2018-11-26T10:14:48.494Z,15.40
2018-11-26T10:17:20.825Z,15.40
2018-11-26T10:19:53.159Z,15.40
2018-11-26T10:22:26.402Z,15.30
2018-11-26T10:25:05.629Z,15.30
2018-11-26T10:27:31.559Z,15.20
2018-11-26T10:30:03.900Z,15.20
2018-11-26T10:32:36.272Z,15.10
2018-11-26T10:35:09.308Z,15.00
2018-11-26T10:37:41.694Z,15.00
2018-11-26T10:40:18.876Z,14.80
2018-11-26T10:42:51.209Z,15.00
2018-11-26T10:45:24.714Z,15.00
2018-11-26T10:47:57.052Z,15.10
2018-11-26T10:50:30.440Z,15.00
2018-11-26T10:53:03.231Z,15.00
2018-11-26T10:55:37.746Z,15.00
2018-11-26T10:58:10.332Z,15.00
2018-11-26T11:00:46.354Z,15.10
2018-11-26T11:03:18.750Z,15.00
2018-11-26T11:05:51.110Z,14.90
2018-11-26T11:08:23.844Z,14.90
2018-11-26T11:10:56.039Z,14.90
2018-11-26T11:13:28.417Z,14.80
2018-11-26T11:16:00.934Z,14.80
2018-11-26T11:18:33.268Z,14.90
2018-11-26T11:21:06.414Z,14.80
2018-11-26T11:23:38.992Z,14.80
2018-11-26T11:29:32.776Z,14.70
2018-11-26T11:32:05.653Z,14.80
2018-11-26T11:34:38.546Z,14.80
2018-11-26T11:37:12.241Z,14.70
2018-11-26T11:39:47.957Z,14.50
2018-11-26T11:42:26.315Z,14.40
2018-11-26T11:45:01.709Z,14.60
2018-11-26T11:47:35.453Z,14.50
2018-11-26T11:50:10.037Z,14.40
2018-11-26T11:52:46.201Z,14.40
2018-11-26T11:55:23.204Z,14.30
2018-11-26T11:57:58.648Z,14.40
2018-11-26T12:00:50.053Z,14.40
2018-11-26T12:06:36.723Z,14.80
2018-11-26T12:09:12.578Z,15.00
2018-11-26T12:11:45.568Z,14.90
2018-11-26T12:14:18.439Z,14.90
2018-11-26T12:16:56.567Z,15.00
2018-11-26T12:19:29.572Z,15.10
2018-11-26T12:22:02.922Z,15.10
2018-11-26T12:24:37.022Z,15.10
2018-11-26T12:27:11.175Z,15.20
2018-11-26T12:29:43.892Z,15.20
2018-11-26T12:32:16.725Z,15.40
2018-11-26T12:34:53.709Z,15.50
2018-11-26T12:40:38.835Z,15.90
2018-11-26T12:43:16.347Z,16.30
2018-11-26T12:45:49.323Z,16.50
2018-11-26T12:48:23.566Z,16.80
2018-11-26T12:50:58.830Z,17.10
2018-11-26T12:53:31.621Z,17.50
2018-11-26T12:56:04.406Z,17.80
2018-11-26T12:58:37.206Z,18.00
2018-11-26T13:01:14.687Z,17.80
2018-11-26T13:03:50.080Z,17.60
2018-11-26T13:06:24.602Z,17.70
2018-11-26T13:09:00.377Z,18.20
2018-11-26T13:11:34.270Z,18.50
2018-11-26T13:14:07.260Z,19.10
2018-11-26T13:16:43.479Z,19.60
2018-11-26T13:19:19.390Z,20.00
2018-11-26T13:21:52.290Z,20.30
2018-11-26T13:24:26.140Z,20.90
2018-11-26T13:26:58.912Z,21.20
2018-11-26T13:32:55.469Z,21.40
2018-11-26T13:35:27.785Z,21.70
2018-11-26T13:38:00.129Z,22.00
2018-11-26T13:40:38.533Z,22.00
2018-11-26T13:43:14.006Z,22.10
2018-11-26T13:52:33.847Z,22.70
2018-11-26T13:55:06.557Z,22.40
2018-11-26T13:57:40.504Z,22.60
2018-11-26T14:03:44.579Z,23.30
2018-11-26T14:06:17.830Z,23.60
2018-11-26T14:08:50.814Z,23.70
2018-11-26T14:11:24.684Z,23.60
2018-11-26T14:13:57.800Z,23.70
2018-11-26T14:16:30.899Z,23.80
2018-11-26T14:19:06.359Z,24.10
2018-11-26T14:21:41.988Z,24.50
2018-11-26T14:24:15.465Z,25.10
2018-11-26T14:26:49.450Z,25.50
2018-11-26T14:29:22.420Z,25.70
2018-11-26T14:31:55.482Z,26.40
2018-11-26T14:34:28.286Z,26.60
2018-11-26T14:37:01.529Z,26.60
2018-11-26T14:39:34.592Z,27.10
2018-11-26T14:42:07.720Z,27.10
2018-11-26T14:44:40.860Z,27.20
2018-11-26T14:47:14.900Z,27.50
2018-11-26T14:49:49.601Z,27.20
2018-11-26T14:52:23.798Z,26.50
2018-11-26T14:54:56.870Z,26.40
2018-11-26T14:57:30.754Z,26.70
2018-11-26T15:00:04.412Z,27.10
2018-11-26T15:02:37.299Z,27.30
2018-11-26T15:05:12.228Z,27.30
2018-11-26T15:07:45.260Z,27.10
2018-11-26T15:10:21.244Z,26.40
2018-11-26T15:12:54.647Z,26.30
2018-11-26T15:15:30.671Z,26.90
2018-11-26T15:18:06.013Z,27.10
2018-11-26T15:20:38.955Z,27.70
2018-11-26T15:23:12.977Z,27.80
2018-11-26T15:25:45.991Z,27.70
2018-11-26T15:28:19.328Z,27.40
2018-11-26T15:30:55.635Z,27.20
2018-11-26T15:33:29.704Z,26.00
2018-11-26T15:36:02.701Z,25.90
2018-11-26T15:38:35.756Z,26.10
2018-11-26T15:41:08.779Z,25.90
2018-11-26T15:43:47.757Z,26.30
2018-11-26T15:46:20.906Z,26.80
2018-11-26T15:48:54.278Z,26.90
2018-11-26T15:51:27.124Z,27.60
2018-11-26T15:54:00.555Z,27.00
2018-11-26T15:56:35.194Z,27.10
2018-11-26T15:59:09.223Z,27.20
2018-11-26T16:01:42.258Z,27.50
2018-11-26T16:04:23.108Z,27.80
2018-11-26T16:06:56.658Z,27.90
2018-11-26T16:12:16.938Z,26.50
2018-11-26T16:14:50.075Z,26.60
2018-11-26T16:17:26.185Z,27.20
2018-11-26T16:20:00.717Z,27.80
2018-11-26T16:22:35.810Z,27.30
2018-11-26T16:25:25.482Z,27.30
2018-11-26T16:28:02.354Z,27.60
2018-11-26T16:30:55.619Z,27.60
2018-11-26T16:33:30.411Z,27.80
2018-11-26T16:36:06.983Z,28.20
2018-11-26T16:38:40.296Z,27.80
2018-11-26T16:41:13.986Z,28.30
2018-11-26T16:43:47.107Z,28.10
2018-11-26T16:46:20.459Z,27.70
2018-11-26T16:48:53.304Z,27.90
2018-11-26T16:51:26.650Z,27.40
2018-11-26T16:54:01.981Z,27.50
2018-11-26T16:56:38.769Z,27.60
2018-11-26T16:59:11.673Z,28.00
2018-11-26T17:05:15.545Z,27.50
2018-11-26T17:07:53.343Z,28.00
2018-11-26T17:13:47.782Z,28.30
2018-11-26T17:16:20.223Z,27.80
2018-11-26T17:19:01.040Z,27.90
2018-11-26T17:21:46.805Z,27.90
2018-11-26T17:24:21.537Z,28.70
2018-11-26T17:26:54.417Z,28.40
2018-11-26T17:29:51.973Z,28.90
2018-11-26T17:32:52.432Z,29.00
2018-11-26T17:56:45.993Z,28.30
2018-11-26T17:59:28.886Z,28.30
2018-11-26T18:02:23.047Z,28.50
2018-11-26T18:05:00.372Z,28.00
2018-11-26T18:07:42.118Z,28.00
2018-11-26T18:10:36.985Z,28.30
2018-11-26T18:13:13.886Z,28.30
2018-11-26T18:18:41.431Z,28.60
2018-11-26T18:21:26.806Z,28.90
2018-11-26T18:24:00.853Z,28.90
2018-11-26T18:26:37.814Z,28.00
2018-11-26T18:29:15.690Z,27.60
2018-11-26T18:31:55.937Z,27.70
2018-11-26T18:34:28.972Z,27.60
2018-11-26T18:37:12.644Z,27.70
2018-11-26T18:39:47.606Z,27.70
2018-11-26T18:42:20.657Z,27.80
2018-11-26T18:44:53.459Z,27.90
2018-11-26T18:47:27.678Z,28.20
2018-11-26T18:50:00.683Z,27.80
2018-11-26T18:52:36.603Z,28.20
2018-11-26T18:55:11.823Z,27.80
2018-11-26T18:57:44.582Z,27.50
2018-11-26T19:00:20.259Z,27.70
2018-11-26T19:02:54.807Z,27.70
2018-11-26T19:05:57.559Z,27.30
2018-11-26T19:08:32.915Z,27.20
2018-11-26T19:11:10.888Z,27.70
2018-11-26T19:13:54.571Z,27.80
2018-11-26T19:16:33.697Z,27.30
2018-11-26T19:19:08.792Z,27.30
2018-11-26T19:21:43.020Z,27.40
2018-11-26T19:24:21.256Z,27.60
2018-11-26T19:26:59.107Z,27.50
2018-11-26T19:29:40.068Z,27.50
2018-11-26T19:32:12.523Z,27.50
2018-11-26T19:34:45.959Z,27.50
2018-11-26T19:37:18.403Z,27.30
2018-11-26T19:39:55.298Z,27.90
2018-11-26T19:42:28.476Z,28.50
2018-11-26T19:45:02.732Z,28.40
2018-11-26T19:47:36.160Z,27.80
2018-11-26T19:50:13.436Z,27.80
2018-11-26T19:52:46.828Z,27.50
2018-11-26T19:55:21.185Z,27.70
2018-11-26T19:57:57.114Z,27.40
2018-11-26T20:00:35.681Z,28.40
2018-11-26T20:03:22.030Z,28.10
2018-11-26T20:06:14.857Z,29.00
2018-11-26T20:08:55.844Z,28.60
2018-11-26T20:11:33.511Z,29.10
2018-11-26T20:14:21.296Z,29.10
2018-11-26T20:16:56.778Z,29.00
2018-11-26T20:19:35.535Z,28.10
2018-11-26T20:22:20.061Z,27.60
2018-11-26T20:25:07.141Z,27.20
2018-11-26T20:27:58.087Z,27.80
2018-11-26T20:30:31.071Z,27.90
2018-11-26T20:33:04.950Z,28.00
2018-11-26T20:35:38.030Z,28.10
2018-11-26T20:38:12.704Z,27.70
2018-11-26T20:40:46.893Z,27.30
2018-11-26T20:46:42.118Z,26.40
2018-11-26T20:49:14.778Z,27.30
2018-11-26T20:51:48.041Z,27.20
2018-11-26T20:54:21.615Z,27.40
2018-11-26T20:56:54.230Z,27.50
2018-11-26T20:59:26.928Z,28.00
2018-11-26T21:02:47.878Z,27.40
2018-11-26T21:05:43.511Z,26.90
2018-11-26T21:08:24.375Z,27.10
2018-11-26T21:12:10.554Z,27.90
2018-11-26T21:14:55.878Z,28.10
2018-11-26T21:17:49.903Z,27.30
2018-11-26T21:23:57.007Z,27.80
2018-11-26T21:26:32.054Z,27.40
2018-11-26T21:29:19.297Z,27.30
2018-11-26T21:31:55.282Z,26.60
2018-11-26T21:34:31.769Z,26.40
2018-11-26T21:37:07.811Z,25.90
2018-11-26T21:39:42.200Z,25.60
2018-11-26T21:42:16.981Z,25.30
2018-11-26T21:44:51.943Z,25.30
2018-11-26T21:47:29.552Z,25.40
2018-11-26T21:50:04.839Z,25.40
2018-11-26T21:52:38.138Z,25.40
2018-11-26T21:55:19.517Z,25.20
2018-11-26T21:57:59.086Z,24.90
2018-11-26T22:00:45.480Z,24.70
2018-11-26T22:03:18.909Z,24.60
2018-11-26T22:05:53.349Z,24.50
2018-11-26T22:08:29.898Z,24.40
2018-11-26T22:11:05.221Z,24.20
2018-11-26T22:13:42.750Z,24.30
2018-11-26T22:16:22.154Z,24.30
2018-11-26T22:19:07.171Z,24.30
2018-11-26T22:21:41.951Z,24.40
2018-11-26T22:24:19.934Z,24.50
2018-11-26T22:27:04.023Z,24.50
2018-11-26T22:32:34.473Z,24.60
2018-11-26T22:35:16.525Z,24.70
2018-11-26T22:38:25.284Z,24.60
2018-11-26T22:40:58.859Z,24.50
2018-11-26T22:43:31.423Z,24.20
2018-11-26T22:46:08.336Z,23.90
2018-11-26T22:48:44.897Z,23.80
2018-11-26T22:51:19.092Z,23.70
2018-11-26T22:53:53.420Z,23.70
2018-11-26T22:59:49.532Z,23.60
2018-11-26T23:02:30.780Z,23.60
2018-11-26T23:05:11.694Z,23.40
2018-11-26T23:07:57.283Z,23.40
2018-11-26T23:10:45.479Z,23.30
2018-11-26T23:13:36.236Z,23.20
2018-11-26T23:16:24.146Z,23.10
2018-11-26T23:19:12.825Z,22.90
2018-11-26T23:38:37.892Z,22.30
2018-11-26T23:41:14.560Z,22.20
2018-11-26T23:43:59.554Z,22.10
2018-11-26T23:47:38.463Z,22.10
2018-11-26T23:53:13.875Z,22.00
2018-11-26T23:55:50.293Z,21.90
2018-11-26T23:58:25.587Z,21.80
